Time;durP1;ratioP1;P1;durP2;ratioP2;P2;SDS_P1;SDS_P2;PMS_P1;PMS_P2;Temp;Humidity;BMP_temperature;BMP_pressure;BME280_temperature;BME280_humidity;BME280_pressure;Samples;Min_cycle;Max_cycle;Signal;HPM_P1;HPM_P2
2021/03/30 00:00:23;;;;;;;;;;;10.90;87.90;;;;;;4879307;29;19928;-84
2021/03/30 00:02:49;;;;;;;;;;;10.90;87.70;;;;;;4878977;29;20380;-84
2021/03/30 00:05:15;;;;;;;;;;;10.90;88.00;;;;;;4878274;29;19972;-84
2021/03/30 00:07:40;;;;;;;;;;;10.80;87.80;;;;;;4877704;29;19924;-84
2021/03/30 00:10:07;;;;;;;;;;;10.80;87.70;;;;;;4860270;29;20011;-84
2021/03/30 00:12:33;;;;;;;;;;;10.80;87.40;;;;;;4861119;29;19920;-85
2021/03/30 00:15:04;;;;;;;;;;;10.70;87.60;;;;;;4860806;29;19928;-84
2021/03/30 00:17:30;;;;;;;;;;;10.70;87.50;;;;;;4860367;29;19924;-83
2021/03/30 00:19:56;;;;;;;;;;;10.70;87.30;;;;;;4861096;29;19924;-85
2021/03/30 00:22:23;;;;;;;;;;;10.60;86.80;;;;;;4860951;29;19924;-85
2021/03/30 00:24:52;;;;;;;;;;;10.50;86.90;;;;;;4860164;29;19920;-84
2021/03/30 00:27:18;;;;;;;;;;;10.50;86.90;;;;;;4860587;29;20019;-85
2021/03/30 00:29:43;;;;;;;;;;;10.50;87.40;;;;;;4877859;29;20465;-84
2021/03/30 00:32:10;;;;;;;;;;;10.50;87.60;;;;;;4869961;29;19931;-84
2021/03/30 00:34:36;;;;;;;;;;;10.50;87.60;;;;;;4860954;29;19924;-84
2021/03/30 00:37:02;;;;;;;;;;;10.40;87.80;;;;;;4860473;29;20388;-85
2021/03/30 00:39:28;;;;;;;;;;;10.40;87.60;;;;;;4859908;29;19924;-84
2021/03/30 00:41:53;;;;;;;;;;;10.40;87.70;;;;;;4861072;29;20026;-84
2021/03/30 00:44:19;;;;;;;;;;;10.40;87.70;;;;;;4860495;29;20420;-84
2021/03/30 00:46:45;;;;;;;;;;;10.30;87.80;;;;;;4860095;29;20384;-84
2021/03/30 00:49:13;;;;;;;;;;;10.30;87.60;;;;;;4874536;29;19924;-85
2021/03/30 00:51:39;;;;;;;;;;;10.30;87.60;;;;;;4878182;29;19974;-85
2021/03/30 00:54:07;;;;;;;;;;;10.20;87.60;;;;;;4879134;29;20375;-84
2021/03/30 00:56:33;;;;;;;;;;;10.30;87.80;;;;;;4879454;29;19962;-84
2021/03/30 00:59:00;;;;;;;;;;;10.20;87.80;;;;;;4877861;29;19963;-84
2021/03/30 01:01:26;;;;;;;;;;;10.20;87.80;;;;;;4869295;29;20023;-84
2021/03/30 01:03:52;;;;;;;;;;;10.20;87.80;;;;;;4881027;29;19979;-84
2021/03/30 01:06:17;;;;;;;;;;;10.20;87.90;;;;;;4869814;29;20063;-84
2021/03/30 01:08:43;;;;;;;;;;;10.20;88.00;;;;;;4863643;29;19957;-84
2021/03/30 01:11:20;;;;;;;;;;;10.10;87.90;;;;;;4863766;29;19980;-84
2021/03/30 01:13:55;;;;;;;;;;;10.10;88.10;;;;;;4863073;29;19932;-84
2021/03/30 01:16:22;;;;;;;;;;;10.10;88.00;;;;;;4863415;29;20296;-84
2021/03/30 01:19:02;;;;;;;;;;;10.10;88.20;;;;;;4863800;29;19924;-84
2021/03/30 01:21:37;;;;;;;;;;;10.00;88.10;;;;;;4863903;29;19970;-84
2021/03/30 01:24:14;;;;;;;;;;;10.00;88.10;;;;;;4869715;29;19930;-85
2021/03/30 01:26:59;;;;;;;;;;;10.00;88.10;;;;;;4868865;29;19924;-84
2021/03/30 01:29:47;;;;;;;;;;;10.00;88.10;;;;;;4873699;29;19943;-84
2021/03/30 01:32:15;;;;;;;;;;;9.90;88.10;;;;;;4869935;29;19983;-84
2021/03/30 01:34:42;;;;;;;;;;;9.90;88.10;;;;;;4881304;29;20501;-84
2021/03/30 01:37:09;;;;;;;;;;;9.90;88.00;;;;;;4874912;29;19924;-84
2021/03/30 01:39:38;;;;;;;;;;;9.80;88.10;;;;;;4871618;29;20369;-84
2021/03/30 01:42:04;;;;;;;;;;;9.80;88.10;;;;;;4862016;29;20444;-85
2021/03/30 01:44:30;;;;;;;;;;;9.80;88.30;;;;;;4879800;29;19980;-84
2021/03/30 01:46:55;;;;;;;;;;;9.80;88.20;;;;;;4881739;29;20322;-84
2021/03/30 01:49:22;;;;;;;;;;;9.80;88.20;;;;;;4879214;29;19924;-84
2021/03/30 01:51:48;;;;;;;;;;;9.70;88.20;;;;;;4871186;29;19923;-84
2021/03/30 01:54:14;;;;;;;;;;;9.70;88.20;;;;;;4881395;29;19924;-84
2021/03/30 01:56:41;;;;;;;;;;;9.70;88.20;;;;;;4869483;29;19920;-84
2021/03/30 01:59:08;;;;;;;;;;;9.70;88.30;;;;;;4862746;29;19928;-84
2021/03/30 02:01:35;;;;;;;;;;;9.60;88.30;;;;;;4863059;29;19924;-84
2021/03/30 02:04:02;;;;;;;;;;;9.60;88.40;;;;;;4862004;29;20296;-84
2021/03/30 02:06:28;;;;;;;;;;;9.60;88.50;;;;;;4862842;29;20381;-83
2021/03/30 02:08:58;;;;;;;;;;;9.60;88.60;;;;;;4874231;29;19946;-83
2021/03/30 02:11:42;;;;;;;;;;;9.60;88.90;;;;;;4879894;29;20022;-84
2021/03/30 02:14:08;;;;;;;;;;;9.50;88.60;;;;;;4880844;29;19947;-84
2021/03/30 02:16:38;;;;;;;;;;;9.50;88.40;;;;;;4874961;29;20366;-84
2021/03/30 02:19:11;;;;;;;;;;;9.50;88.50;;;;;;4862663;29;20036;-84
2021/03/30 02:21:45;;;;;;;;;;;9.40;88.60;;;;;;4847143;29;19968;-84
2021/03/30 02:24:12;;;;;;;;;;;9.40;88.90;;;;;;4869120;29;20437;-84
2021/03/30 02:26:40;;;;;;;;;;;9.40;88.70;;;;;;4880831;29;20364;-84
2021/03/30 02:29:10;;;;;;;;;;;9.30;88.60;;;;;;4880886;29;19923;-84
2021/03/30 02:31:37;;;;;;;;;;;9.30;88.60;;;;;;4880074;29;19927;-84
2021/03/30 02:34:05;;;;;;;;;;;9.30;88.50;;;;;;4881071;29;19979;-84
2021/03/30 02:36:31;;;;;;;;;;;9.20;88.30;;;;;;4880751;29;19948;-84
2021/03/30 02:38:59;;;;;;;;;;;9.10;88.40;;;;;;4879886;29;19928;-84
2021/03/30 02:41:27;;;;;;;;;;;9.10;88.30;;;;;;4880835;29;19924;-84
2021/03/30 02:43:53;;;;;;;;;;;9.10;88.40;;;;;;4880633;29;19931;-84
2021/03/30 02:46:19;;;;;;;;;;;9.10;88.30;;;;;;4863401;29;19928;-84
2021/03/30 02:48:45;;;;;;;;;;;9.00;88.30;;;;;;4862362;29;19997;-85
2021/03/30 02:51:11;;;;;;;;;;;9.00;88.20;;;;;;4861380;29;19931;-84
2021/03/30 02:53:37;;;;;;;;;;;8.90;88.20;;;;;;4862242;29;19928;-83
2021/03/30 02:56:07;;;;;;;;;;;8.90;88.30;;;;;;4861781;29;20296;-83
2021/03/30 02:58:33;;;;;;;;;;;8.90;88.30;;;;;;4861223;29;20388;-84
2021/03/30 03:00:59;;;;;;;;;;;8.80;88.90;;;;;;4861252;29;19924;-84
2021/03/30 03:03:26;;;;;;;;;;;8.80;88.30;;;;;;4861987;29;20340;-84
2021/03/30 03:05:51;;;;;;;;;;;8.80;88.40;;;;;;4864641;29;20391;-84
2021/03/30 03:08:18;;;;;;;;;;;8.80;88.60;;;;;;4879737;29;19923;-84
2021/03/30 03:10:44;;;;;;;;;;;8.80;88.50;;;;;;4880472;29;19924;-84
2021/03/30 03:13:12;;;;;;;;;;;8.80;88.60;;;;;;4874641;29;20392;-84
2021/03/30 03:15:38;;;;;;;;;;;8.70;88.50;;;;;;4861492;29;20407;-84
2021/03/30 03:18:05;;;;;;;;;;;8.70;88.70;;;;;;4861569;29;19924;-84
2021/03/30 03:20:30;;;;;;;;;;;8.70;88.60;;;;;;4860840;29;19924;-84
2021/03/30 03:22:56;;;;;;;;;;;8.60;88.40;;;;;;4861590;29;19984;-84
2021/03/30 03:25:22;;;;;;;;;;;8.60;88.30;;;;;;4861266;29;19924;-84
2021/03/30 03:27:47;;;;;;;;;;;8.60;88.40;;;;;;4860642;29;19930;-84
2021/03/30 03:30:13;;;;;;;;;;;8.50;88.30;;;;;;4861237;29;20031;-83
2021/03/30 03:32:39;;;;;;;;;;;8.50;88.30;;;;;;4861713;29;19949;-83
2021/03/30 03:35:08;;;;;;;;;;;8.50;88.40;;;;;;4860611;29;19924;-83
2021/03/30 03:37:39;;;;;;;;;;;8.40;88.30;;;;;;4861501;29;19931;-84
2021/03/30 03:40:06;;;;;;;;;;;8.40;88.40;;;;;;4861192;29;19923;-83
2021/03/30 03:42:32;;;;;;;;;;;8.40;88.40;;;;;;4872299;29;19953;-84
2021/03/30 03:45:00;;;;;;;;;;;8.30;88.30;;;;;;4879956;29;19945;-84
2021/03/30 03:47:26;;;;;;;;;;;8.30;88.40;;;;;;4879140;29;19931;-84
2021/03/30 03:49:51;;;;;;;;;;;8.20;88.30;;;;;;4879755;29;19924;-84
2021/03/30 03:52:17;;;;;;;;;;;8.20;88.20;;;;;;4879329;29;19920;-84
2021/03/30 03:54:43;;;;;;;;;;;8.20;88.30;;;;;;4878934;29;20427;-84
2021/03/30 03:57:30;;;;;;;;;;;8.20;88.30;;;;;;4879255;29;20292;-83
2021/03/30 03:59:58;;;;;;;;;;;8.10;88.20;;;;;;4879438;29;19931;-84
2021/03/30 04:02:24;;;;;;;;;;;8.10;88.20;;;;;;4878441;29;20433;-84
2021/03/30 04:04:52;;;;;;;;;;;8.10;88.20;;;;;;4879545;29;19928;-84
2021/03/30 04:07:35;;;;;;;;;;;8.10;88.20;;;;;;4862041;29;20372;-84
2021/03/30 04:10:02;;;;;;;;;;;8.00;88.10;;;;;;4865595;29;20288;-84
2021/03/30 04:12:30;;;;;;;;;;;8.00;88.10;;;;;;4879531;29;19927;-84
2021/03/30 04:14:59;;;;;;;;;;;7.90;88.20;;;;;;4879485;29;20022;-84
2021/03/30 04:17:25;;;;;;;;;;;7.90;88.10;;;;;;4878646;29;20305;-83
2021/03/30 04:19:51;;;;;;;;;;;7.90;88.10;;;;;;4876341;29;19924;-84
2021/03/30 04:22:16;;;;;;;;;;;7.80;88.20;;;;;;4876795;29;20432;-84
2021/03/30 04:24:43;;;;;;;;;;;7.80;88.20;;;;;;4878049;29;20023;-84
2021/03/30 04:27:09;;;;;;;;;;;7.80;88.20;;;;;;4878967;29;20297;-84
2021/03/30 04:29:35;;;;;;;;;;;7.80;88.20;;;;;;4878702;29;20328;-84
2021/03/30 04:32:00;;;;;;;;;;;7.80;88.20;;;;;;4879088;29;19920;-84
2021/03/30 04:34:26;;;;;;;;;;;7.70;88.20;;;;;;4879256;29;19930;-84
2021/03/30 04:36:52;;;;;;;;;;;7.70;88.20;;;;;;4862656;29;19988;-84
2021/03/30 04:39:17;;;;;;;;;;;7.70;88.20;;;;;;4870128;29;20391;-84
2021/03/30 04:41:43;;;;;;;;;;;7.70;88.20;;;;;;4864465;29;19924;-84
2021/03/30 04:44:09;;;;;;;;;;;7.60;88.20;;;;;;4863395;29;20006;-84
2021/03/30 04:46:34;;;;;;;;;;;7.60;88.20;;;;;;4864422;29;19932;-83
2021/03/30 04:49:00;;;;;;;;;;;7.60;88.20;;;;;;4864160;29;19949;-84
2021/03/30 04:51:26;;;;;;;;;;;7.50;88.10;;;;;;4868290;29;20014;-83
2021/03/30 04:56:25;;;;;;;;;;;7.50;88.10;;;;;;4880846;29;19930;-81
2021/03/30 04:58:51;;;;;;;;;;;7.50;88.10;;;;;;4882190;29;19924;-82
2021/03/30 05:01:16;;;;;;;;;;;7.50;88.10;;;;;;4874012;29;19923;-82
2021/03/30 05:04:21;;;;;;;;;;;7.40;88.10;;;;;;4878204;29;19931;-83
2021/03/30 05:06:39;;;;;;;;;;;7.40;88.10;;;;;;4872399;29;19924;-83
2021/03/30 05:09:05;;;;;;;;;;;7.30;88.00;;;;;;4879864;29;19924;-83
2021/03/30 05:11:33;;;;;;;;;;;7.30;88.20;;;;;;4882049;29;19947;-83
2021/03/30 05:14:00;;;;;;;;;;;7.30;88.10;;;;;;4880897;29;20416;-83
2021/03/30 05:16:25;;;;;;;;;;;7.20;88.10;;;;;;4882021;29;19927;-83
2021/03/30 05:18:51;;;;;;;;;;;7.20;88.20;;;;;;4873624;29;19946;-83
2021/03/30 05:21:17;;;;;;;;;;;7.20;88.10;;;;;;4882274;29;19924;-83
2021/03/30 05:23:43;;;;;;;;;;;7.20;88.20;;;;;;4873853;29;19956;-83
2021/03/30 05:26:09;;;;;;;;;;;7.10;88.10;;;;;;4877368;29;19967;-83
2021/03/30 05:28:37;;;;;;;;;;;7.10;88.10;;;;;;4866233;29;19974;-83
2021/03/30 05:31:05;;;;;;;;;;;7.10;88.10;;;;;;4863524;29;19924;-83
2021/03/30 05:33:30;;;;;;;;;;;7.00;88.10;;;;;;4863062;29;20437;-84
2021/03/30 05:35:56;;;;;;;;;;;7.00;88.10;;;;;;4875074;29;19929;-84
2021/03/30 05:38:22;;;;;;;;;;;7.00;88.10;;;;;;4881468;29;19924;-85
2021/03/30 05:40:48;;;;;;;;;;;7.00;88.20;;;;;;4875750;29;19959;-82
2021/03/30 05:43:14;;;;;;;;;;;7.00;88.10;;;;;;4881958;23;19924;-82
2021/03/30 05:45:40;;;;;;;;;;;6.90;88.00;;;;;;4876213;29;19935;-84
2021/03/30 05:48:10;;;;;;;;;;;6.90;88.00;;;;;;4869004;29;20062;-83
2021/03/30 05:51:03;;;;;;;;;;;6.90;88.00;;;;;;4871597;29;21917;-83
2021/03/30 05:53:34;;;;;;;;;;;6.90;88.00;;;;;;4855235;29;19923;-82
2021/03/30 05:56:06;;;;;;;;;;;6.90;88.00;;;;;;4872770;29;20394;-82
2021/03/30 05:58:42;;;;;;;;;;;6.90;87.90;;;;;;4870366;29;19928;-85
2021/03/30 06:01:26;;;;;;;;;;;6.80;87.70;;;;;;4875197;29;19927;-83
2021/03/30 06:04:03;;;;;;;;;;;6.90;87.70;;;;;;4868660;29;19935;-83
2021/03/30 06:06:28;;;;;;;;;;;6.90;87.70;;;;;;4862080;29;19928;-83
2021/03/30 06:08:54;;;;;;;;;;;6.90;87.50;;;;;;4862249;29;19924;-83
2021/03/30 06:11:26;;;;;;;;;;;6.90;87.40;;;;;;4862614;29;19927;-83
2021/03/30 06:13:56;;;;;;;;;;;6.90;87.50;;;;;;4862697;29;20395;-83
2021/03/30 06:16:24;;;;;;;;;;;6.80;87.40;;;;;;4861689;29;20376;-82
2021/03/30 06:19:08;;;;;;;;;;;6.80;87.30;;;;;;4872042;29;19924;-83
2021/03/30 06:21:38;;;;;;;;;;;6.90;87.30;;;;;;4881328;29;19955;-83
2021/03/30 06:24:22;;;;;;;;;;;6.90;87.20;;;;;;4880093;29;19931;-83
2021/03/30 06:26:48;;;;;;;;;;;6.90;87.20;;;;;;4880983;29;20018;-83
2021/03/30 06:29:43;;;;;;;;;;;6.90;87.20;;;;;;4880037;29;20389;-83
2021/03/30 06:32:10;;;;;;;;;;;6.90;87.10;;;;;;4852085;29;20015;-83
2021/03/30 06:34:37;;;;;;;;;;;6.90;87.10;;;;;;4862530;29;19956;-83
2021/03/30 06:37:22;;;;;;;;;;;6.90;87.00;;;;;;4861447;29;19938;-83
2021/03/30 06:39:48;;;;;;;;;;;6.90;87.00;;;;;;4862029;29;20010;-83
2021/03/30 06:42:26;;;;;;;;;;;6.90;86.90;;;;;;4861835;29;20401;-82
2021/03/30 06:44:51;;;;;;;;;;;7.00;86.90;;;;;;4861303;29;19937;-83
2021/03/30 06:47:18;;;;;;;;;;;7.00;86.90;;;;;;4845504;29;20286;-83
2021/03/30 06:49:51;;;;;;;;;;;7.00;86.90;;;;;;4862278;29;19980;-82
2021/03/30 06:52:18;;;;;;;;;;;7.10;87.00;;;;;;4861044;29;19924;-83
2021/03/30 06:54:54;;;;;;;;;;;7.10;87.00;;;;;;4862313;29;19951;-82
2021/03/30 06:57:36;;;;;;;;;;;7.20;86.80;;;;;;4862035;29;20436;-83
2021/03/30 07:00:07;;;;;;;;;;;7.30;86.60;;;;;;4861568;29;19932;-83
2021/03/30 07:02:33;;;;;;;;;;;7.40;86.50;;;;;;4878543;29;20280;-83
2021/03/30 07:04:59;;;;;;;;;;;7.50;86.30;;;;;;4879549;29;19924;-83
2021/03/30 07:07:26;;;;;;;;;;;7.50;86.10;;;;;;4880648;29;19931;-83
2021/03/30 07:09:52;;;;;;;;;;;7.60;86.00;;;;;;4880607;29;19949;-83
2021/03/30 07:12:23;;;;;;;;;;;7.70;85.70;;;;;;4879362;29;20396;-83
2021/03/30 07:14:51;;;;;;;;;;;7.80;86.40;;;;;;4880407;29;19927;-83
2021/03/30 07:17:21;;;;;;;;;;;7.90;85.40;;;;;;4879891;29;19924;-84
2021/03/30 07:19:47;;;;;;;;;;;8.00;85.40;;;;;;4879776;29;19927;-83
2021/03/30 07:22:13;;;;;;;;;;;8.10;85.10;;;;;;4879950;29;19979;-83
2021/03/30 07:24:52;;;;;;;;;;;8.20;84.90;;;;;;4880129;29;19923;-84
2021/03/30 07:27:20;;;;;;;;;;;8.30;84.70;;;;;;4870912;29;20018;-84
2021/03/30 07:29:46;;;;;;;;;;;8.40;84.10;;;;;;4877022;29;19924;-84
2021/03/30 07:32:21;;;;;;;;;;;8.50;84.20;;;;;;4880099;29;19930;-84
2021/03/30 07:34:53;;;;;;;;;;;8.60;84.20;;;;;;4880175;29;19950;-84
2021/03/30 07:37:27;;;;;;;;;;;8.70;83.90;;;;;;4879650;29;20404;-84
2021/03/30 07:39:54;;;;;;;;;;;8.80;83.80;;;;;;4873312;29;19972;-84
2021/03/30 07:42:19;;;;;;;;;;;8.90;83.80;;;;;;4868764;29;19920;-84
2021/03/30 07:44:49;;;;;;;;;;;9.00;83.70;;;;;;4879632;29;20369;-84
2021/03/30 07:47:16;;;;;;;;;;;9.20;84.00;;;;;;4867652;29;20015;-85
2021/03/30 07:49:45;;;;;;;;;;;9.30;83.60;;;;;;4867864;29;19928;-85
2021/03/30 07:52:21;;;;;;;;;;;9.40;83.30;;;;;;4868796;29;19952;-84
2021/03/30 07:55:05;;;;;;;;;;;9.50;83.00;;;;;;4860419;29;20014;-85
2021/03/30 07:57:51;;;;;;;;;;;9.60;82.60;;;;;;4864512;29;19931;-84
2021/03/30 08:00:31;;;;;;;;;;;9.80;82.20;;;;;;4868791;29;19976;-84
2021/03/30 08:02:57;;;;;;;;;;;9.90;81.90;;;;;;4871111;29;20400;-84
2021/03/30 08:05:26;;;;;;;;;;;10.00;82.00;;;;;;4860758;29;20305;-84
2021/03/30 08:07:53;;;;;;;;;;;10.10;81.70;;;;;;4860430;29;19935;-86
2021/03/30 08:10:30;;;;;;;;;;;10.20;81.20;;;;;;4860284;29;20372;-85
2021/03/30 08:13:14;;;;;;;;;;;10.30;81.10;;;;;;4861960;29;20015;-84
2021/03/30 08:15:46;;;;;;;;;;;10.40;80.70;;;;;;4860471;29;19931;-85
2021/03/30 08:18:11;;;;;;;;;;;10.50;81.00;;;;;;4870961;29;20277;-85
2021/03/30 08:20:57;;;;;;;;;;;10.60;80.70;;;;;;4879397;29;19931;-85
2021/03/30 08:23:26;;;;;;;;;;;10.70;80.70;;;;;;4873270;29;20012;-85
2021/03/30 08:25:53;;;;;;;;;;;10.80;80.70;;;;;;4874903;29;20296;-85
2021/03/30 08:28:37;;;;;;;;;;;10.90;80.10;;;;;;4877416;29;19932;-88
2021/03/30 08:31:03;;;;;;;;;;;10.90;79.80;;;;;;4879076;29;19931;-84
2021/03/30 08:33:32;;;;;;;;;;;11.10;80.30;;;;;;4879316;29;20021;-84
2021/03/30 08:36:17;;;;;;;;;;;11.10;80.00;;;;;;4873495;29;19928;-84
2021/03/30 08:38:44;;;;;;;;;;;11.20;79.90;;;;;;4879227;29;20372;-84
2021/03/30 08:41:10;;;;;;;;;;;11.30;79.70;;;;;;4879192;29;19930;-87
2021/03/30 08:43:36;;;;;;;;;;;11.40;78.80;;;;;;4862041;29;19923;-85
2021/03/30 08:46:06;;;;;;;;;;;11.50;79.20;;;;;;4879082;29;20336;-84
2021/03/30 08:48:33;;;;;;;;;;;11.60;79.10;;;;;;4879114;29;20393;-85
2021/03/30 08:51:01;;;;;;;;;;;11.80;78.10;;;;;;4878096;29;19972;-86
2021/03/30 08:53:30;;;;;;;;;;;11.90;78.30;;;;;;4873755;29;19980;-85
2021/03/30 09:09:58;;;;;;;;;;;12.50;76.40;;;;;;3046647;27;20399;-85
2021/03/30 09:16:00;;;;;;;;;;;12.70;76.30;;;;;;4874611;23;20377;-86
2021/03/30 09:18:32;;;;;;;;;;;12.90;76.00;;;;;;4855744;29;19924;-85
2021/03/30 09:21:08;;;;;;;;;;;13.00;75.80;;;;;;4845509;29;19935;-85
2021/03/30 09:30:35;;;;;;;;;;;13.40;75.30;;;;;;4807981;29;19925;-85
2021/03/30 09:33:00;;;;;;;;;;;13.50;73.00;;;;;;4806917;29;19925;-85
2021/03/30 09:35:29;;;;;;;;;;;13.60;73.80;;;;;;4806737;29;19970;-85
2021/03/30 09:38:02;;;;;;;;;;;13.70;73.40;;;;;;4807673;29;19964;-84
2021/03/30 09:40:42;;;;;;;;;;;13.80;74.00;;;;;;4812671;29;20631;-86
2021/03/30 09:43:25;;;;;;;;;;;13.90;74.50;;;;;;4816667;29;20316;-91
2021/03/30 09:48:23;;;;;;;;;;;14.10;73.80;;;;;;4918727;23;20403;-85
2021/03/30 09:50:51;;;;;;;;;;;14.20;73.90;;;;;;4862519;29;19924;-86
2021/03/30 09:53:19;;;;;;;;;;;14.30;74.70;;;;;;4862245;29;19928;-85
2021/03/30 09:56:05;;;;;;;;;;;14.50;73.70;;;;;;4863374;29;20019;-85
2021/03/30 09:58:31;;;;;;;;;;;14.50;72.10;;;;;;4863346;29;19924;-86
2021/03/30 10:01:06;;;;;;;;;;;14.70;72.50;;;;;;4861989;29;19931;-85
2021/03/30 10:03:31;;;;;;;;;;;14.80;73.30;;;;;;4863022;29;20336;-85
2021/03/30 10:06:28;;;;;;;;;;;14.80;71.50;;;;;;4862802;29;19941;-85
2021/03/30 10:09:04;;;;;;;;;;;14.90;70.70;;;;;;4862439;29;19931;-85
2021/03/30 10:11:30;;;;;;;;;;;15.00;70.80;;;;;;4863009;29;19920;-85
2021/03/30 10:14:14;;;;;;;;;;;15.10;69.20;;;;;;4862983;29;20006;-85
2021/03/30 10:16:40;;;;;;;;;;;15.30;68.80;;;;;;4862967;29;19924;-85
2021/03/30 10:19:06;;;;;;;;;;;15.40;70.40;;;;;;4862661;29;19924;-85
2021/03/30 10:21:35;;;;;;;;;;;15.50;69.10;;;;;;4862016;29;20014;-85
2021/03/30 10:24:17;;;;;;;;;;;15.60;67.30;;;;;;4862491;29;20296;-85
2021/03/30 10:27:02;;;;;;;;;;;15.70;67.80;;;;;;4833618;29;19951;-86
2021/03/30 10:29:36;;;;;;;;;;;15.80;67.00;;;;;;4861693;29;20019;-86
2021/03/30 10:32:06;;;;;;;;;;;15.90;66.00;;;;;;4862200;29;20364;-85
2021/03/30 10:34:33;;;;;;;;;;;16.00;66.10;;;;;;4862022;29;19924;-86
2021/03/30 10:37:00;;;;;;;;;;;16.00;64.80;;;;;;4861344;29;20026;-86
2021/03/30 10:39:28;;;;;;;;;;;16.10;65.00;;;;;;4862291;29;19959;-85
2021/03/30 10:41:59;;;;;;;;;;;16.20;66.00;;;;;;4862611;29;20018;-86
2021/03/30 10:44:31;;;;;;;;;;;16.30;64.50;;;;;;4861847;29;20070;-86
2021/03/30 10:46:57;;;;;;;;;;;16.40;65.20;;;;;;4861950;29;19971;-85
2021/03/30 10:49:22;;;;;;;;;;;16.50;63.50;;;;;;4861069;29;19966;-85
2021/03/30 10:51:48;;;;;;;;;;;16.60;62.90;;;;;;4862045;29;19924;-85
2021/03/30 10:54:19;;;;;;;;;;;16.70;62.90;;;;;;4862060;29;19928;-86
2021/03/30 10:56:44;;;;;;;;;;;16.80;61.70;;;;;;4861517;29;20342;-85
2021/03/30 10:59:11;;;;;;;;;;;16.90;61.80;;;;;;4861991;29;19927;-86
2021/03/30 11:01:37;;;;;;;;;;;17.00;61.50;;;;;;4862141;29;20329;-86
2021/03/30 11:04:03;;;;;;;;;;;17.10;62.30;;;;;;4861058;29;20007;-86
2021/03/30 11:06:29;;;;;;;;;;;17.10;60.70;;;;;;4862052;29;19927;-85
2021/03/30 11:08:54;;;;;;;;;;;17.20;61.30;;;;;;4861822;29;20011;-85
2021/03/30 11:11:20;;;;;;;;;;;17.30;60.60;;;;;;4860928;29;19971;-85
2021/03/30 11:13:46;;;;;;;;;;;17.30;61.60;;;;;;4862086;29;20416;-85
2021/03/30 11:16:11;;;;;;;;;;;17.40;64.20;;;;;;4861500;29;19924;-85
2021/03/30 11:18:37;;;;;;;;;;;17.50;61.10;;;;;;4861178;29;19931;-85
2021/03/30 11:21:03;;;;;;;;;;;17.50;61.40;;;;;;4861513;29;19928;-86
2021/03/30 11:23:28;;;;;;;;;;;17.60;61.70;;;;;;4862213;29;19931;-86
2021/03/30 11:25:54;;;;;;;;;;;17.70;60.80;;;;;;4859355;29;20461;-86
2021/03/30 11:28:20;;;;;;;;;;;17.80;60.40;;;;;;4861502;29;19955;-86
2021/03/30 11:30:56;;;;;;;;;;;17.80;60.50;;;;;;4861583;29;19924;-86
2021/03/30 11:33:26;;;;;;;;;;;17.90;60.50;;;;;;4858736;29;20414;-87
2021/03/30 11:35:54;;;;;;;;;;;17.90;60.50;;;;;;4851214;29;19939;-86
2021/03/30 11:38:20;;;;;;;;;;;18.00;59.10;;;;;;4857829;29;20296;-86
2021/03/30 11:40:48;;;;;;;;;;;18.10;59.90;;;;;;4843031;29;19928;-89
2021/03/30 11:43:13;;;;;;;;;;;18.10;59.40;;;;;;4843031;29;19920;-86
2021/03/30 11:45:39;;;;;;;;;;;18.20;60.70;;;;;;4856114;29;20388;-86
2021/03/30 11:48:05;;;;;;;;;;;18.20;58.30;;;;;;4860786;29;19924;-86
2021/03/30 11:50:31;;;;;;;;;;;18.20;57.70;;;;;;4857330;29;19963;-86
2021/03/30 11:52:57;;;;;;;;;;;18.30;58.20;;;;;;4860846;29;19955;-87
2021/03/30 11:55:23;;;;;;;;;;;18.40;55.80;;;;;;4853771;29;20443;-85
2021/03/30 11:57:49;;;;;;;;;;;18.40;55.70;;;;;;4844435;29;19956;-92
2021/03/30 12:00:16;;;;;;;;;;;18.50;56.30;;;;;;4852962;29;19930;-86
2021/03/30 12:02:41;;;;;;;;;;;18.50;55.60;;;;;;4849615;29;19924;-86
2021/03/30 12:05:10;;;;;;;;;;;18.60;55.20;;;;;;4853706;29;19924;-86
2021/03/30 12:07:36;;;;;;;;;;;18.70;56.30;;;;;;4850787;29;19976;-86
2021/03/30 12:10:01;;;;;;;;;;;18.80;54.90;;;;;;4842301;29;20361;-86
2021/03/30 12:12:27;;;;;;;;;;;18.80;56.20;;;;;;4859993;29;20007;-86
2021/03/30 12:14:56;;;;;;;;;;;18.90;52.80;;;;;;4859201;29;20018;-86
2021/03/30 12:17:32;;;;;;;;;;;19.00;54.60;;;;;;4859927;29;19924;-87
2021/03/30 12:19:58;;;;;;;;;;;19.00;55.30;;;;;;4860847;29;19973;-87
2021/03/30 12:22:33;;;;;;;;;;;19.10;53.30;;;;;;4850446;29;19925;-86
2021/03/30 12:24:59;;;;;;;;;;;19.10;52.60;;;;;;4853271;29;19975;-86
2021/03/30 12:27:37;;;;;;;;;;;19.20;51.80;;;;;;4860587;29;19953;-89
2021/03/30 12:30:06;;;;;;;;;;;19.30;54.60;;;;;;4849392;29;19924;-87
2021/03/30 12:32:35;;;;;;;;;;;19.30;52.00;;;;;;4841995;29;20380;-87
2021/03/30 12:35:06;;;;;;;;;;;19.40;52.50;;;;;;4847036;29;20022;-85
2021/03/30 12:37:35;;;;;;;;;;;19.40;52.30;;;;;;4859455;29;19947;-87
2021/03/30 12:40:04;;;;;;;;;;;19.50;53.20;;;;;;4860258;29;19928;-86
2021/03/30 12:42:38;;;;;;;;;;;19.50;55.40;;;;;;4860257;29;19927;-86
2021/03/30 12:45:07;;;;;;;;;;;19.50;53.20;;;;;;4856503;29;19931;-86
2021/03/30 12:48:04;;;;;;;;;;;19.60;48.60;;;;;;4854543;29;19924;-86
2021/03/30 12:58:03;;;;;;;;;;;19.80;52.70;;;;;;4774259;30;19951;-84
2021/03/30 13:04:00;;;;;;;;;;;19.90;53.30;;;;;;4801483;29;19988;-84
2021/03/30 13:06:31;;;;;;;;;;;19.90;53.30;;;;;;4845680;29;19980;-84
2021/03/30 13:09:06;;;;;;;;;;;20.00;50.10;;;;;;4845539;29;19932;-84
2021/03/30 13:11:37;;;;;;;;;;;20.00;52.00;;;;;;4871221;23;20393;-84
2021/03/30 13:14:10;;;;;;;;;;;20.00;50.80;;;;;;4881692;29;19923;-84
2021/03/30 13:16:36;;;;;;;;;;;20.00;48.20;;;;;;4881167;29;19924;-85
2021/03/30 13:19:07;;;;;;;;;;;20.00;50.70;;;;;;4881294;29;20306;-86
2021/03/30 13:21:32;;;;;;;;;;;20.00;50.20;;;;;;4882111;29;19934;-85
2021/03/30 13:24:06;;;;;;;;;;;20.10;51.60;;;;;;4881859;29;19927;-84
2021/03/30 13:26:35;;;;;;;;;;;20.10;48.60;;;;;;4880569;29;20295;-85
2021/03/30 13:29:03;;;;;;;;;;;20.20;50.00;;;;;;4881470;29;19924;-85
2021/03/30 13:31:37;;;;;;;;;;;20.20;44.70;;;;;;4881522;29;19931;-85
2021/03/30 13:34:18;;;;;;;;;;;20.20;47.90;;;;;;4852347;29;19931;-85
2021/03/30 13:36:59;;;;;;;;;;;20.20;47.80;;;;;;4876448;29;19924;-84
2021/03/30 13:39:35;;;;;;;;;;;20.30;49.30;;;;;;4880611;29;19931;-86
2021/03/30 13:42:10;;;;;;;;;;;20.30;50.60;;;;;;4881160;29;19924;-85
2021/03/30 13:44:36;;;;;;;;;;;20.30;49.10;;;;;;4881334;29;19924;-85
2021/03/30 13:47:11;;;;;;;;;;;20.40;47.50;;;;;;4878976;29;19927;-84
2021/03/30 13:49:38;;;;;;;;;;;20.40;45.10;;;;;;4881527;29;19930;-84
2021/03/30 13:52:09;;;;;;;;;;;20.40;44.30;;;;;;4881304;29;19919;-85
2021/03/30 13:54:35;;;;;;;;;;;20.40;45.80;;;;;;4881983;29;20395;-85
2021/03/30 13:57:01;;;;;;;;;;;20.50;45.10;;;;;;4880223;29;19920;-84
2021/03/30 13:59:27;;;;;;;;;;;20.50;45.20;;;;;;4880499;29;20333;-84
2021/03/30 14:05:09;;;;;;;;;;;20.50;46.20;;;;;;4925992;23;19995;-84
2021/03/30 15:07:41;;;;;;;;;;;20.90;39.80;;;;;;4764312;29;19923;-84
2021/03/30 15:10:07;;;;;;;;;;;20.90;41.50;;;;;;4870399;29;20373;-83
2021/03/30 15:12:33;;;;;;;;;;;20.90;38.10;;;;;;4872387;29;19931;-84
2021/03/30 15:14:58;;;;;;;;;;;20.90;37.30;;;;;;4861481;29;19924;-86
2021/03/30 15:17:24;;;;;;;;;;;20.90;39.00;;;;;;4851282;29;20023;-88
2021/03/30 15:19:52;;;;;;;;;;;20.90;38.40;;;;;;4867318;29;20327;-84
2021/03/30 15:22:18;;;;;;;;;;;20.90;41.20;;;;;;4872152;29;20372;-85
2021/03/30 15:24:43;;;;;;;;;;;20.90;38.20;;;;;;4874588;29;20031;-84
2021/03/30 15:27:09;;;;;;;;;;;20.90;37.80;;;;;;4869597;29;19975;-84
2021/03/30 15:29:35;;;;;;;;;;;20.90;40.60;;;;;;4876253;29;20018;-86
2021/03/30 15:32:00;;;;;;;;;;;21.00;41.80;;;;;;4877172;29;19924;-85
2021/03/30 15:34:26;;;;;;;;;;;21.00;44.90;;;;;;4874100;29;20283;-85
2021/03/30 15:36:52;;;;;;;;;;;21.00;42.70;;;;;;4876003;29;19920;-85
2021/03/30 15:39:18;;;;;;;;;;;21.00;44.60;;;;;;4866981;29;19927;-85
2021/03/30 15:41:43;;;;;;;;;;;21.00;46.70;;;;;;4863895;29;20293;-86
2021/03/30 15:44:25;;;;;;;;;;;21.00;43.40;;;;;;4861157;29;19920;-85
2021/03/30 15:49:35;;;;;;;;;;;21.10;46.00;;;;;;4844691;29;19924;-85
2021/03/30 16:02:23;;;;;;;;;;;21.10;44.90;;;;;;4878368;23;19920;-87
2021/03/30 16:04:54;;;;;;;;;;;21.10;47.90;;;;;;4879386;29;20014;-87
2021/03/30 16:07:26;;;;;;;;;;;21.20;52.30;;;;;;4878507;29;19924;-86
2021/03/30 16:13:34;;;;;;;;;;;21.20;55.20;;;;;;4839472;29;19983;-87
2021/03/30 16:16:00;;;;;;;;;;;21.30;55.80;;;;;;4840342;29;19924;-88
2021/03/30 16:18:30;;;;;;;;;;;21.30;57.70;;;;;;4840546;29;20027;-87
2021/03/30 16:21:00;;;;;;;;;;;21.40;57.00;;;;;;4839748;29;19924;-87
2021/03/30 16:27:07;;;;;;;;;;;21.40;61.20;;;;;;4830931;29;19919;-91
2021/03/30 16:29:38;;;;;;;;;;;21.40;55.70;;;;;;4840683;29;19928;-87
2021/03/30 16:32:14;;;;;;;;;;;21.40;51.50;;;;;;4842304;29;20350;-84
2021/03/30 16:34:57;;;;;;;;;;;21.30;49.10;;;;;;4849606;24;19932;-94
2021/03/30 16:37:35;;;;;;;;;;;21.40;57.90;;;;;;4873400;29;19924;-95
2021/03/30 16:40:03;;;;;;;;;;;21.40;62.10;;;;;;4865293;29;19982;-88